Time;durP1;ratioP1;P1;durP2;ratioP2;P2;SDS_P1;SDS_P2;PMS_P1;PMS_P2;Temp;Humidity;BMP_temperature;BMP_pressure;BME280_temperature;BME280_humidity;BME280_pressure;Samples;Min_cycle;Max_cycle;Signal;HPM_P1;HPM_P2
2022/04/28 00:00:19;;;;;;;12.70;10.87;;;;;;;9.19;86.18;98952.59;4141808;28;21219;-85
2022/04/28 00:02:23;;;;;;;10.20;9.10;;;;;;;9.17;86.97;98950.97;4140450;28;20668;-85
2022/04/28 00:04:26;;;;;;;11.00;9.90;;;;;;;9.14;86.04;98949.38;4144232;28;20678;-83
2022/04/28 00:06:29;;;;;;;10.73;9.63;;;;;;;9.10;86.65;98945.25;4142036;28;21227;-84
2022/04/28 00:08:33;;;;;;;11.53;10.33;;;;;;;9.05;86.41;98947.22;4143408;28;20657;-85
2022/04/28 00:10:38;;;;;;;10.83;9.70;;;;;;;9.02;86.91;98952.59;4144120;28;21189;-85
2022/04/28 00:12:42;;;;;;;14.37;9.77;;;;;;;8.99;87.50;98950.13;4145555;28;20664;-85
2022/04/28 00:14:45;;;;;;;12.45;9.80;;;;;;;8.96;86.58;98955.47;4146502;28;20737;-86
2022/04/28 00:16:50;;;;;;;12.70;10.63;;;;;;;8.95;87.32;98950.34;4145871;28;20196;-84
2022/04/28 00:18:53;;;;;;;11.73;10.48;;;;;;;8.93;87.06;98947.81;4155551;28;20680;-85
2022/04/28 00:20:57;;;;;;;11.37;10.17;;;;;;;8.89;86.55;98947.22;4141428;28;20303;-85
2022/04/28 00:23:00;;;;;;;10.13;9.13;;;;;;;8.84;86.53;98956.97;4155595;28;20638;-84
2022/04/28 00:25:04;;;;;;;12.55;10.90;;;;;;;8.82;86.96;98945.81;4143281;28;21106;-85
2022/04/28 00:27:08;;;;;;;12.13;10.18;;;;;;;8.79;87.71;98949.38;4124878;28;20213;-85
2022/04/28 00:29:11;;;;;;;11.10;9.90;;;;;;;8.79;87.11;98944.19;4156292;28;20644;-85
2022/04/28 00:31:15;;;;;;;10.30;9.30;;;;;;;8.75;87.78;98949.59;4144346;28;20658;-85
2022/04/28 00:33:20;;;;;;;12.87;9.77;;;;;;;8.72;86.30;98948.00;4143026;28;20205;-84
2022/04/28 00:35:23;;;;;;;12.05;10.38;;;;;;;8.70;86.17;98949.00;4154102;28;20724;-85
2022/04/28 00:37:27;;;;;;;11.10;9.70;;;;;;;8.69;86.76;98942.97;4141065;28;20208;-85
2022/04/28 00:39:32;;;;;;;11.52;10.32;;;;;;;8.70;87.37;98946.38;4173082;28;21008;-85
2022/04/28 00:41:35;;;;;;;10.60;9.33;;;;;;;8.67;86.90;98946.53;4141132;28;20202;-86
2022/04/28 00:43:48;;;;;;;11.90;10.70;;;;;;;8.62;87.55;98946.75;4144344;28;20628;-85
2022/04/28 00:45:51;;;;;;;12.30;10.80;;;;;;;8.61;86.34;98942.44;4145210;28;20736;-84
2022/04/28 00:52:38;;;;;;;11.40;9.87;;;;;;;8.52;87.36;98949.84;4141651;28;20209;-84
2022/04/28 00:54:42;;;;;;;12.30;10.00;;;;;;;8.48;87.00;98950.94;4142720;28;21276;-85
2022/04/28 00:56:45;;;;;;;18.67;10.00;;;;;;;8.48;87.17;98950.94;4159271;28;20623;-85
2022/04/28 00:58:50;;;;;;;12.43;9.73;;;;;;;8.45;87.60;98951.91;4145091;28;20578;-84
2022/04/28 01:00:54;;;;;;;10.85;9.70;;;;;;;8.44;87.22;98956.34;4155751;28;20655;-85
2022/04/28 01:02:57;;;;;;;11.45;10.35;;;;;;;8.39;86.97;98953.94;4143697;28;20211;-85
2022/04/28 01:05:01;;;;;;;11.40;9.37;;;;;;;8.37;87.61;98949.72;4143825;28;20227;-85
2022/04/28 01:07:07;;;;;;;11.50;10.30;;;;;;;8.37;87.60;98949.72;4155918;28;20641;-84
2022/04/28 01:09:10;;;;;;;12.60;10.30;;;;;;;8.37;86.97;98960.13;4143590;28;20204;-85
2022/04/28 01:11:16;;;;;;;10.70;9.40;;;;;;;8.36;87.88;98954.09;4142537;28;20693;-84
2022/04/28 01:13:22;;;;;;;11.82;10.60;;;;;;;8.31;87.87;98947.41;4127489;28;20638;-85
2022/04/28 01:15:43;;;;;;;11.95;10.57;;;;;;;8.30;87.52;98945.69;4143296;28;20295;-85
2022/04/28 01:17:46;;;;;;;11.40;10.20;;;;;;;8.29;86.94;98954.44;4163857;28;20289;-85
2022/04/28 01:19:50;;;;;;;11.50;10.30;;;;;;;8.24;87.18;98956.38;4144280;28;20242;-84
2022/04/28 01:21:55;;;;;;;12.02;10.18;;;;;;;8.24;87.33;98954.63;4156297;28;20645;-84
2022/04/28 01:23:59;;;;;;;12.48;11.05;;;;;;;8.19;88.55;98953.97;4140894;28;20237;-85
2022/04/28 01:26:03;;;;;;;13.20;10.10;;;;;;;8.17;87.48;98954.97;4173731;28;20549;-84
2022/04/28 01:28:07;;;;;;;12.30;10.07;;;;;;;8.15;88.03;98949.84;4142182;28;20735;-84
2022/04/28 01:30:15;;;;;;;10.70;9.65;;;;;;;8.12;88.44;98955.19;4138556;28;20238;-84
2022/04/28 01:32:25;;;;;;;11.33;10.20;;;;;;;8.12;87.18;98950.00;4172757;28;20210;-84
2022/04/28 01:34:28;;;;;;;12.93;10.43;;;;;;;8.10;87.53;98948.31;4141774;28;20793;-87
2022/04/28 01:36:32;;;;;;;11.05;9.95;;;;;;;8.09;88.54;98946.66;4155895;28;20720;-85
2022/04/28 01:38:38;;;;;;;14.50;10.70;;;;;;;8.07;88.77;98957.13;4142382;28;20593;-85
2022/04/28 01:40:41;;;;;;;10.93;9.82;;;;;;;8.05;87.96;98948.53;4152952;28;20251;-85
2022/04/28 01:42:47;;;;;;;11.63;10.30;;;;;;;8.03;87.68;98939.16;4141232;28;21996;-89
2022/04/28 01:44:51;;;;;;;12.52;10.40;;;;;;;8.02;88.30;98947.84;4142650;28;20216;-84
2022/04/28 01:46:55;;;;;;;12.43;11.02;;;;;;;8.00;88.20;98947.91;4142142;28;20205;-86
2022/04/28 01:49:36;;;;;;;10.93;9.30;;;;;;;7.93;88.69;98953.44;4131401;28;20209;-85
2022/04/28 01:55:00;;;;;;;12.80;10.07;;;;;;;7.89;87.23;98958.84;4140503;28;20208;-85
2022/04/28 01:57:31;;;;;;;11.73;10.55;;;;;;;7.84;88.10;98959.03;4124657;28;20212;-84
2022/04/28 02:00:11;;;;;;;11.10;9.80;;;;;;;7.79;87.28;98955.81;4104957;28;20237;-84
2022/04/28 02:02:22;;;;;;;12.52;10.55;;;;;;;7.77;87.29;98955.03;4119735;28;20265;-85
2022/04/28 02:04:25;;;;;;;11.93;10.63;;;;;;;7.77;88.45;98954.16;4141477;28;20272;-85
2022/04/28 02:06:30;;;;;;;11.60;10.23;;;;;;;7.77;88.21;98955.03;4124409;28;20753;-84
2022/04/28 02:08:34;;;;;;;13.77;11.05;;;;;;;7.76;88.19;98961.13;4141331;28;20195;-85
2022/04/28 02:10:39;;;;;;;11.27;10.18;;;;;;;7.67;87.34;98950.31;4157248;28;20237;-85
2022/04/28 02:12:55;;;;;;;11.77;10.30;;;;;;;7.64;87.77;98953.88;4157163;28;20717;-86
2022/04/28 02:15:19;;;;;;;11.02;9.70;;;;;;;7.65;88.09;98958.16;4143375;28;20282;-85
2022/04/28 02:17:42;;;;;;;14.63;9.80;;;;;;;7.63;88.38;98956.53;4124894;28;20915;-85
2022/04/28 02:19:45;;;;;;;12.40;9.55;;;;;;;7.61;87.73;98953.16;4155298;28;20356;-84
2022/04/28 02:21:48;;;;;;;13.13;10.38;;;;;;;7.60;87.75;98956.66;4140383;28;20246;-84
2022/04/28 02:23:52;;;;;;;12.80;9.85;;;;;;;7.57;88.19;98956.78;4143792;28;20711;-84
2022/04/28 02:25:57;;;;;;;12.93;10.73;;;;;;;7.56;87.66;98957.69;4118795;28;20200;-85
2022/04/28 02:28:00;;;;;;;12.02;10.38;;;;;;;7.56;87.81;98958.53;4172640;28;20221;-84
2022/04/28 02:30:05;;;;;;;11.88;10.52;;;;;;;7.54;87.36;98956.91;4123070;28;20344;-84
2022/04/28 02:32:10;;;;;;;12.00;9.27;;;;;;;7.52;87.71;98953.56;4141590;28;20202;-84
2022/04/28 02:34:13;;;;;;;11.75;10.00;;;;;;;7.51;87.25;98959.63;4135826;28;20222;-85
2022/04/28 02:36:24;;;;;;;11.70;9.70;;;;;;;7.53;87.43;98958.69;4156114;28;20697;-84
2022/04/28 02:38:27;;;;;;;12.38;9.77;;;;;;;7.51;87.88;98959.63;4137325;28;20290;-84
2022/04/28 02:40:31;;;;;;;10.95;9.85;;;;;;;7.51;87.62;98972.63;4140523;28;20704;-84
2022/04/28 02:42:38;;;;;;;12.90;10.60;;;;;;;7.48;88.09;98964.13;4155220;28;20245;-85
2022/04/28 02:44:42;;;;;;;12.75;10.60;;;;;;;7.44;88.19;98963.38;4137468;28;20338;-84
2022/04/28 02:46:48;;;;;;;11.50;10.10;;;;;;;7.44;87.55;98963.38;4173836;28;20229;-85
2022/04/28 02:48:55;;;;;;;12.13;10.43;;;;;;;7.45;88.58;98959.06;4173558;28;20202;-85
2022/04/28 02:50:59;;;;;;;13.85;10.50;;;;;;;7.43;88.82;98961.72;4142202;28;20212;-85
2022/04/28 02:53:02;;;;;;;13.10;10.70;;;;;;;7.40;87.89;98959.25;4159027;28;20210;-83
2022/04/28 02:55:12;;;;;;;12.57;10.38;;;;;;;7.38;88.47;98955.91;4139348;28;20210;-85
2022/04/28 02:57:15;;;;;;;11.65;10.35;;;;;;;7.40;88.43;98958.44;4140337;28;20215;-84
2022/04/28 02:59:21;;;;;;;13.40;10.98;;;;;;;7.39;88.15;98959.31;4155164;28;20207;-85
2022/04/28 03:01:27;;;;;;;12.30;11.10;;;;;;;7.36;88.15;98959.44;4138806;28;20776;-84
2022/04/28 03:03:31;;;;;;;11.32;9.75;;;;;;;7.33;87.98;98963.00;4138521;28;20235;-84
2022/04/28 03:10:46;;;;;;;10.90;9.55;;;;;;;7.29;88.69;98961.47;4161282;28;20256;-84
2022/04/28 03:10:51;;;;;;;13.70;10.40;;;;;;;7.28;88.11;98969.31;4091423;28;20610;-84
2022/04/28 03:12:58;;;;;;;11.13;10.02;;;;;;;7.26;87.66;98968.50;4121979;28;20206;-85
2022/04/28 03:15:08;;;;;;;10.65;9.55;;;;;;;7.24;88.17;98972.94;4124286;28;20294;-84
2022/04/28 03:17:12;;;;;;;13.30;10.45;;;;;;;7.22;87.74;98967.81;4158520;28;20779;-85
2022/04/28 03:19:16;;;;;;;11.50;10.32;;;;;;;7.19;87.98;98965.31;4175232;28;20206;-85
2022/04/28 03:21:21;;;;;;;16.73;10.15;;;;;;;7.18;89.11;98976.59;4136352;28;20221;-85
2022/04/28 03:23:26;;;;;;;11.75;10.55;;;;;;;7.17;88.07;98976.66;4135452;28;20742;-84
2022/04/28 03:25:31;;;;;;;12.00;10.55;;;;;;;7.18;89.03;98979.19;4140728;28;20293;-84
2022/04/28 03:27:34;;;;;;;11.48;10.27;;;;;;;7.13;88.22;98988.91;4117471;28;20200;-85
2022/04/28 03:29:38;;;;;;;11.00;9.45;;;;;;;7.06;87.71;98982.28;4143514;28;20203;-86
2022/04/28 03:31:43;;;;;;;13.20;10.40;;;;;;;7.03;87.85;98976.38;4161617;28;20278;-85
2022/04/28 03:33:58;;;;;;;12.73;11.23;;;;;;;7.03;87.54;98983.34;4144806;28;20220;-84
2022/04/28 03:36:02;;;;;;;11.15;10.02;;;;;;;7.03;87.30;98982.41;4144802;28;20683;-84
2022/04/28 03:38:09;;;;;;;11.90;10.65;;;;;;;7.02;87.72;98987.66;4159780;28;20207;-84
2022/04/28 03:40:17;;;;;;;12.80;10.40;;;;;;;7.06;88.68;98977.09;4160418;28;20840;-85
2022/04/28 03:42:20;;;;;;;12.60;9.88;;;;;;;7.04;87.69;98985.88;4160267;28;20214;-85
2022/04/28 03:44:25;;;;;;;12.50;10.85;;;;;;;7.03;88.19;98982.41;4159562;28;20234;-83
2022/04/28 03:46:29;;;;;;;15.00;12.05;;;;;;;7.00;88.74;98980.84;4159247;28;20661;-85
2022/04/28 03:48:33;;;;;;;15.38;11.90;;;;;;;6.94;88.55;98986.28;4143533;28;20219;-84
2022/04/28 03:50:38;;;;;;;12.35;10.95;;;;;;;6.90;88.87;98984.72;4154653;28;20556;-85
2022/04/28 03:52:42;;;;;;;12.75;11.20;;;;;;;6.86;88.18;98985.75;4145104;28;20785;-85
2022/04/28 03:54:45;;;;;;;12.68;10.57;;;;;;;6.81;87.82;98985.06;4140066;28;20684;-84
2022/04/28 03:56:49;;;;;;;14.32;11.95;;;;;;;6.79;87.63;98990.31;4143061;28;20589;-85
2022/04/28 03:58:53;;;;;;;13.82;11.48;;;;;;;6.81;88.44;98985.06;4142549;28;20230;-84
2022/04/28 04:00:56;;;;;;;14.27;12.00;;;;;;;6.82;88.35;98981.59;4141715;28;20333;-85
2022/04/28 04:03:11;;;;;;;13.77;11.45;;;;;;;6.77;88.06;98984.34;4174359;28;20607;-85
2022/04/28 04:05:19;;;;;;;14.93;12.15;;;;;;;6.77;87.99;98989.53;4155469;28;20233;-84
2022/04/28 04:07:22;;;;;;;14.65;11.98;;;;;;;6.81;88.31;98990.25;4156179;28;20301;-85
2022/04/28 04:09:28;;;;;;;17.35;13.20;;;;;;;6.83;88.83;99001.44;4143529;28;20210;-85
2022/04/28 04:11:32;;;;;;;14.68;11.57;;;;;;;6.83;88.47;98993.66;4156855;28;20630;-84
2022/04/28 04:13:35;;;;;;;13.38;11.10;;;;;;;6.85;88.63;98992.66;4140679;28;20250;-84
2022/04/28 04:15:39;;;;;;;15.40;11.80;;;;;;;6.88;88.54;98992.53;4144806;28;20579;-85
2022/04/28 04:18:04;;;;;;;15.52;11.27;;;;;;;6.88;88.68;99002.91;4140026;28;20235;-85
2022/04/28 04:20:13;;;;;;;14.65;11.48;;;;;;;6.88;88.40;98996.91;4144713;28;20203;-84
2022/04/28 04:22:18;;;;;;;15.10;11.57;;;;;;;6.89;88.88;98999.44;4143378;28;20204;-84
2022/04/28 04:24:24;;;;;;;15.18;11.60;;;;;;;6.91;89.32;98996.78;4143248;28;20231;-84
2022/04/28 04:26:27;;;;;;;16.33;11.13;;;;;;;6.93;89.17;98997.56;4124402;28;20226;-84
2022/04/28 04:28:31;;;;;;;13.23;11.05;;;;;;;6.93;88.11;98997.56;4160261;28;20212;-84
2022/04/28 04:33:36;;;;;;;15.63;11.18;;;;;;;6.91;88.81;99001.97;4177631;28;20645;-85
2022/04/28 04:35:43;;;;;;;12.15;10.57;;;;;;;6.89;88.06;99003.78;4128865;28;20204;-84
2022/04/28 04:37:48;;;;;;;14.38;11.05;;;;;;;6.90;87.71;99015.81;4141449;28;20253;-85
2022/04/28 04:39:53;;;;;;;13.80;12.00;;;;;;;6.92;88.25;99006.25;4159390;28;20213;-85
2022/04/28 04:41:56;;;;;;;13.98;11.20;;;;;;;6.96;88.59;99013.84;4146729;28;20318;-83
2022/04/28 04:44:00;;;;;;;17.02;12.65;;;;;;;7.02;88.26;99008.41;4130983;28;20229;-85
2022/04/28 04:46:03;;;;;;;13.73;11.55;;;;;;;7.04;89.35;99020.41;4148111;28;20640;-85
2022/04/28 04:48:36;;;;;;;15.90;11.93;;;;;;;7.10;88.74;99019.34;4128632;28;20439;-84
2022/04/28 04:51:03;;;;;;;15.48;12.18;;;;;;;7.10;89.19;99020.16;4143738;28;20290;-85
2022/04/28 04:53:11;;;;;;;17.48;12.35;;;;;;;7.12;88.96;99020.94;4143778;28;20219;-84
2022/04/28 04:55:14;;;;;;;16.80;12.73;;;;;;;7.17;88.95;99028.53;4141163;28;20769;-83
2022/04/28 04:57:31;;;;;;;13.80;11.55;;;;;;;7.19;88.54;99031.94;4155427;28;20207;-84
2022/04/28 04:59:36;;;;;;;20.38;13.27;;;;;;;7.23;89.88;99036.06;4141869;28;20288;-85
2022/04/28 05:01:40;;;;;;;17.25;13.48;;;;;;;7.27;89.40;99032.47;4142392;28;20239;-85
2022/04/28 05:04:03;;;;;;;19.52;14.65;;;;;;;7.31;89.58;99034.03;4159381;28;20887;-85
2022/04/28 05:06:24;;;;;;;19.63;13.13;;;;;;;7.36;90.28;99035.53;4158361;28;20215;-88
2022/04/28 05:08:58;;;;;;;17.65;13.00;;;;;;;7.41;89.40;99038.75;4124799;28;20240;-86
2022/04/28 05:11:01;;;;;;;14.48;12.98;;;;;;;7.47;90.64;99046.31;4159196;28;20245;-88
2022/04/28 05:13:05;;;;;;;17.17;13.50;;;;;;;7.53;89.65;99046.91;4126438;28;20238;-86
2022/04/28 05:15:18;;;;;;;13.48;12.10;;;;;;;7.60;90.39;99053.53;4143086;28;20206;-88
2022/04/28 05:17:36;;;;;;;15.93;11.40;;;;;;;7.71;91.06;99058.28;4143227;28;20221;-87
2022/04/28 05:19:46;;;;;;;16.02;12.63;;;;;;;7.83;90.61;99057.75;4135173;28;20216;-87
2022/04/28 05:22:14;;;;;;;15.98;12.60;;;;;;;8.03;88.89;99064.66;4134223;28;20239;-86
2022/04/28 05:24:51;;;;;;;14.80;12.30;;;;;;;8.35;88.74;99069.31;4150619;28;20201;-89
2022/04/28 05:27:14;;;;;;;18.65;13.25;;;;;;;8.62;87.88;99075.91;4141537;28;23828;-86
2022/04/28 05:29:26;;;;;;;16.20;12.63;;;;;;;8.90;87.15;99077.19;4147038;28;20297;-87
2022/04/28 05:31:52;;;;;;;16.23;12.20;;;;;;;9.18;87.16;99080.19;4146634;28;20624;-86
2022/04/28 05:34:14;;;;;;;15.43;13.05;;;;;;;9.44;86.45;99070.22;4143504;28;20928;-87
2022/04/28 05:36:28;;;;;;;18.30;13.18;;;;;;;9.71;85.02;99089.72;4143670;28;20637;-86
2022/04/28 05:38:32;;;;;;;13.60;11.93;;;;;;;9.97;84.76;99087.56;4126748;28;20205;-86
2022/04/28 05:40:39;;;;;;;17.17;11.75;;;;;;;10.20;84.05;99090.66;4140409;28;20258;-87
2022/04/28 05:47:25;;;;;;;16.67;13.27;;;;;;;11.01;81.32;99088.00;4143715;28;20639;-87
2022/04/28 05:49:31;;;;;;;17.00;15.20;;;;;;;11.23;81.10;99096.38;4128055;28;21356;-86
2022/04/28 05:51:36;;;;;;;15.53;13.93;;;;;;;11.45;80.18;99092.47;4138731;28;20637;-89
2022/04/28 05:53:39;;;;;;;19.87;13.53;;;;;;;11.65;80.04;99092.25;4122286;28;20616;-87
2022/04/28 05:55:46;;;;;;;17.27;13.80;;;;;;;11.85;79.98;99097.19;4147507;28;21999;-86
2022/04/28 05:57:49;;;;;;;14.87;12.50;;;;;;;12.07;79.75;99098.47;4156737;28;20726;-87
2022/04/28 05:59:53;;;;;;;15.87;13.50;;;;;;;12.29;79.42;99104.13;4128557;28;20643;-86
2022/04/28 06:02:18;;;;;;;16.50;14.73;;;;;;;12.53;79.33;99103.50;4169323;28;20661;-88
2022/04/28 06:04:22;;;;;;;15.37;13.77;;;;;;;12.74;78.49;99113.50;4120442;28;20772;-89
2022/04/28 06:06:27;;;;;;;15.47;12.70;;;;;;;12.91;76.90;99112.50;4156949;28;20689;-89
2022/04/28 06:08:33;;;;;;;35.10;19.33;;;;;;;13.08;77.00;99109.69;4136326;28;20659;-90
2022/04/28 06:10:37;;;;;;;22.03;15.73;;;;;;;13.24;76.42;99109.50;4160533;28;20963;-90
2022/04/28 06:12:42;;;;;;;16.53;13.43;;;;;;;13.34;75.75;99113.22;4124213;28;20750;-90
2022/04/28 06:15:04;;;;;;;43.63;22.77;;;;;;;13.61;76.54;99113.25;4139680;28;20678;-90
2022/04/28 06:17:29;;;;;;;17.47;14.97;;;;;;;13.84;76.91;99118.69;4145748;28;20655;-90
2022/04/28 06:19:33;;;;;;;24.30;17.30;;;;;;;14.10;76.84;99130.97;4125588;28;20634;-90
2022/04/28 06:21:36;;;;;;;15.10;13.33;;;;;;;14.26;74.39;99125.44;4140069;28;20628;-89
2022/04/28 06:23:47;;;;;;;15.47;13.87;;;;;;;14.52;74.61;99128.94;4136614;28;20637;-91
2022/04/28 06:25:50;;;;;;;14.47;13.00;;;;;;;14.72;73.38;99127.50;4139177;28;20635;-89
2022/04/28 06:27:56;;;;;;;15.00;13.40;;;;;;;14.86;73.47;99126.56;4125491;28;20650;-90
2022/04/28 06:29:59;;;;;;;15.83;13.43;;;;;;;14.97;71.28;99129.28;4142275;28;20736;-91
2022/04/28 06:32:03;;;;;;;15.80;14.00;;;;;;;14.99;71.17;99130.88;4120582;28;20737;-89
2022/04/28 06:34:25;;;;;;;15.93;14.30;;;;;;;15.22;73.93;99130.13;4140075;28;20636;-90
2022/04/28 06:36:29;;;;;;;16.07;14.37;;;;;;;15.37;72.39;99135.13;4152756;28;20707;-90
2022/04/28 06:38:33;;;;;;;15.70;14.10;;;;;;;15.59;72.71;99130.88;4149294;28;20895;-90
2022/04/28 06:40:38;;;;;;;15.40;13.80;;;;;;;15.87;72.56;99134.97;4139550;28;21228;-88
2022/04/28 06:42:43;;;;;;;16.03;14.33;;;;;;;16.01;70.51;99135.63;4119374;28;20688;-90
2022/04/28 06:45:12;;;;;;;14.77;13.27;;;;;;;16.21;70.52;99142.94;4117271;28;20642;-89
2022/04/28 06:47:35;;;;;;;14.57;13.07;;;;;;;16.43;70.25;99140.38;4136170;28;20647;-88
2022/04/28 06:50:22;;;;;;;17.10;13.60;;;;;;;16.73;72.31;99141.53;4074521;29;20643;-90
2022/04/28 06:52:54;;;;;;;15.83;13.47;;;;;;;17.02;71.33;99144.47;4026991;29;20633;-90
2022/04/28 06:55:07;;;;;;;13.90;12.60;;;;;;;17.18;69.07;99147.56;4092015;28;20673;-88
2022/04/28 06:57:12;;;;;;;16.20;14.13;;;;;;;17.27;69.19;99154.81;4151311;28;20731;-90
2022/04/28 06:59:15;;;;;;;27.37;24.57;;;;;;;17.40;69.61;99149.44;4121629;28;20634;-90
2022/04/28 07:01:22;;;;;;;14.40;12.50;;;;;;;17.72;70.82;99148.53;4136187;28;20641;-89
2022/04/28 07:03:26;;;;;;;14.07;12.67;;;;;;;17.88;67.74;99152.47;4131842;28;20700;-87
2022/04/28 07:05:33;;;;;;;14.50;13.10;;;;;;;17.94;66.58;99158.09;4169319;28;20669;-90
2022/04/28 07:07:38;;;;;;;14.00;12.23;;;;;;;17.96;66.43;99158.78;4137202;28;21008;-88
2022/04/28 07:09:42;;;;;;;13.70;10.63;;;;;;;18.17;64.90;99158.91;4114985;28;20640;-90
2022/04/28 07:12:07;;;;;;;10.47;9.37;;;;;;;18.36;62.75;99159.91;4137682;28;20715;-91
2022/04/28 07:14:39;;;;;;;10.07;9.07;;;;;;;18.61;62.19;99159.53;4136601;28;20812;-91
2022/04/28 07:17:04;;;;;;;11.13;8.33;;;;;;;18.69;60.91;99157.94;4136529;28;21199;-89
2022/04/28 07:19:27;;;;;;;9.30;8.30;;;;;;;18.75;60.89;99159.19;4149766;28;20637;-90
2022/04/28 07:21:32;;;;;;;10.70;9.07;;;;;;;18.81;59.54;99156.03;4151311;28;21416;-90
2022/04/28 07:23:35;;;;;;;10.17;8.97;;;;;;;18.84;60.75;99167.22;4135649;28;21233;-89
2022/04/28 07:25:39;;;;;;;8.47;7.67;;;;;;;19.08;60.03;99154.59;4135610;28;20693;-90
2022/04/28 07:27:43;;;;;;;9.07;8.00;;;;;;;19.09;59.43;99166.84;4152102;28;21184;-90
2022/04/28 07:30:34;;;;;;;8.33;7.30;;;;;;;19.41;60.27;99165.75;4103255;28;21459;-90
2022/04/28 07:33:01;;;;;;;7.60;6.60;;;;;;;19.48;56.57;99173.03;4162763;28;21188;-89
2022/04/28 07:35:59;;;;;;;8.87;7.33;;;;;;;19.54;58.63;99164.53;4136722;28;20994;-90
2022/04/28 07:39:01;;;;;;;7.67;6.87;;;;;;;19.58;55.78;99165.94;4137196;28;20732;-91
2022/04/28 07:41:32;;;;;;;7.50;6.80;;;;;;;19.69;57.17;99163.19;4137426;28;20636;-88
2022/04/28 07:43:56;;;;;;;7.90;7.10;;;;;;;19.72;54.42;99168.22;4149641;28;20759;-91
2022/04/28 07:46:20;;;;;;;7.37;6.67;;;;;;;19.76;56.29;99159.03;4148753;28;20746;-89
2022/04/28 07:48:45;;;;;;;7.00;6.27;;;;;;;19.59;52.27;99177.38;4134826;28;20725;-89
2022/04/28 07:51:09;;;;;;;9.57;6.87;;;;;;;19.54;53.11;99174.28;4135354;28;20684;-90
2022/04/28 07:53:33;;;;;;;6.43;5.73;;;;;;;19.65;56.36;99177.69;4149966;28;20645;-91
2022/04/28 07:56:13;;;;;;;8.23;6.57;;;;;;;19.82;52.53;99165.63;4147913;28;20648;-89
2022/04/28 07:58:41;;;;;;;6.60;5.90;;;;;;;19.88;53.54;99173.88;4134829;28;20610;-90
2022/04/28 08:01:34;;;;;;;7.90;6.37;;;;;;;20.04;53.41;99176.84;4133512;28;20606;-89
2022/04/28 08:03:59;;;;;;;8.20;5.93;;;;;;;19.97;54.08;99171.25;4134929;28;21375;-90
2022/04/28 08:06:25;;;;;;;6.63;6.03;;;;;;;20.04;52.92;99176.84;4136704;28;20717;-90
2022/04/28 09:05:25;;;;;;;7.03;5.73;;;;;;;20.24;51.14;99189.16;4181790;27;20809;-85
2022/04/28 09:07:51;;;;;;;6.77;6.13;;;;;;;20.24;50.18;99187.34;4171948;28;20991;-83
2022/04/28 09:10:30;;;;;;;5.73;5.13;;;;;;;20.56;50.93;99183.44;4166865;28;20634;-86
2022/04/28 09:12:56;;;;;;;6.07;5.20;;;;;;;20.49;48.45;99190.31;4170785;28;21209;-86
2022/04/28 09:15:17;;;;;;;5.53;5.03;;;;;;;20.29;50.45;99187.75;4167206;28;20692;-86
2022/04/28 09:17:40;;;;;;;6.33;4.90;;;;;;;20.27;50.98;99184.41;4172830;28;20621;-85
2022/04/28 09:19:46;;;;;;;5.37;4.87;;;;;;;20.34;49.72;99183.72;4167338;28;20671;-85
2022/04/28 09:22:05;;;;;;;5.60;5.10;;;;;;;20.32;47.67;99197.25;4198013;28;20631;-84
2022/04/28 09:24:10;;;;;;;5.80;5.20;;;;;;;20.13;50.04;99178.66;4186210;28;20628;-85
2022/04/28 09:26:13;;;;;;;5.53;5.03;;;;;;;20.18;49.85;99182.59;4179681;28;20639;-84
2022/04/28 09:28:18;;;;;;;6.93;4.70;;;;;;;20.11;49.54;99184.09;4167990;28;21193;-84
2022/04/28 09:30:26;;;;;;;5.73;5.23;;;;;;;20.19;51.16;99181.63;4148937;28;20626;-85
2022/04/28 09:32:50;;;;;;;5.97;5.27;;;;;;;20.32;49.01;99179.53;4163154;28;20637;-84
2022/04/28 09:35:23;;;;;;;6.67;5.57;;;;;;;20.32;47.53;99184.00;4166305;28;21534;-85
2022/04/28 09:37:42;;;;;;;5.73;5.10;;;;;;;20.28;48.73;99183.41;4163158;28;20643;-84
2022/04/28 09:44:29;;;;;;;5.67;5.00;;;;;;;20.45;49.42;99173.00;3288197;28;10000660;-85
2022/04/28 09:46:49;;;;;;;5.77;5.20;;;;;;;20.40;47.53;99183.19;4138698;28;20285;-86
2022/04/28 09:48:53;;;;;;;6.50;5.50;;;;;;;20.18;48.51;99176.47;4154580;28;20664;-85
2022/04/28 09:51:11;;;;;;;7.60;5.40;;;;;;;20.00;48.42;99170.97;4154566;28;20626;-85
2022/04/28 09:53:40;;;;;;;5.47;4.97;;;;;;;20.21;49.23;99176.19;4147769;28;21236;-85
2022/04/28 09:56:09;;;;;;;6.00;5.40;;;;;;;20.03;50.24;99176.00;4148506;28;20644;-86
2022/04/28 09:58:22;;;;;;;7.37;5.57;;;;;;;20.27;51.03;99173.00;4155234;28;20629;-86
2022/04/28 10:00:26;;;;;;;8.57;5.00;;;;;;;20.43;47.90;99166.13;4137397;28;20685;-86
2022/04/28 10:02:29;;;;;;;5.77;5.20;;;;;;;20.15;48.61;99166.97;4147776;28;20657;-85
2022/04/28 10:04:38;;;;;;;5.73;5.13;;;;;;;20.02;46.77;99162.91;4142992;28;20641;-85
2022/04/28 10:06:42;;;;;;;7.13;6.13;;;;;;;20.06;48.47;99167.78;4135004;28;20705;-87
2022/04/28 10:08:54;;;;;;;4.93;4.30;;;;;;;20.22;48.03;99168.09;4151652;28;20641;-87
2022/04/28 10:10:58;;;;;;;5.70;5.20;;;;;;;20.42;47.74;99172.44;4142526;28;20698;-87
2022/04/28 10:13:01;;;;;;;5.70;5.10;;;;;;;20.44;47.34;99171.31;4137431;28;21138;-86
2022/04/28 10:15:22;;;;;;;5.80;4.63;;;;;;;20.30;47.52;99173.53;4126926;28;20754;-86
2022/04/28 10:17:29;;;;;;;5.33;4.23;;;;;;;20.11;49.37;99165.56;4136964;28;20698;-87
2022/04/28 10:19:35;;;;;;;5.00;4.50;;;;;;;19.92;48.16;99173.47;4132881;28;20722;-85
2022/04/28 10:21:53;;;;;;;5.67;4.70;;;;;;;19.89;48.15;99154.34;4139011;28;20688;-87
2022/04/28 10:34:12;;;;;;;5.50;5.00;;;;;;;20.41;47.43;99153.03;4133237;28;20650;-84
2022/04/28 10:36:17;;;;;;;6.00;5.40;;;;;;;20.59;48.86;99155.81;4135764;28;21087;-84
2022/04/28 10:38:22;;;;;;;5.43;4.93;;;;;;;20.45;47.79;99158.91;4133863;28;20638;-84
2022/04/28 10:40:27;;;;;;;7.30;5.20;;;;;;;20.22;47.52;99156.66;4140574;28;20685;-84
2022/04/28 10:42:59;;;;;;;5.63;5.00;;;;;;;20.18;47.35;99152.63;4136241;28;20655;-84
2022/04/28 10:45:07;;;;;;;5.90;4.87;;;;;;;20.01;48.71;99150.63;4136556;28;21027;-85
2022/04/28 10:47:22;;;;;;;5.27;4.53;;;;;;;20.11;49.97;99143.53;4136778;28;21196;-85
2022/04/28 10:49:26;;;;;;;7.97;4.40;;;;;;;20.41;49.37;99145.06;4123357;28;20673;-85
2022/04/28 10:51:31;;;;;;;5.03;4.40;;;;;;;20.51;49.05;99145.91;4140526;28;21517;-85
2022/04/28 10:54:01;;;;;;;5.17;4.67;;;;;;;20.64;49.31;99137.66;4136486;28;21283;-84
2022/04/28 10:56:12;;;;;;;5.30;4.80;;;;;;;20.75;48.48;99148.16;4135094;28;20631;-84
2022/04/28 10:58:19;;;;;;;5.33;4.83;;;;;;;20.80;48.22;99160.03;4135862;28;20638;-84
2022/04/28 11:00:34;;;;;;;5.43;4.73;;;;;;;20.89;47.79;99151.22;4138239;28;20709;-84
2022/04/28 11:02:43;;;;;;;7.70;5.00;;;;;;;20.66;47.97;99157.78;4124300;28;20643;-85
2022/04/28 11:04:52;;;;;;;5.80;4.57;;;;;;;20.60;50.71;99158.34;4121933;28;20658;-84
2022/04/28 11:06:56;;;;;;;6.87;4.83;;;;;;;20.65;48.93;99158.75;4135927;28;20722;-84
2022/04/28 11:09:00;;;;;;;7.47;4.87;;;;;;;20.64;47.52;99158.88;4119891;28;20635;-85
2022/04/28 11:11:12;;;;;;;4.70;4.30;;;;;;;20.58;48.65;99155.00;4140833;28;20732;-85
2022/04/28 11:13:15;;;;;;;8.57;5.00;;;;;;;20.47;49.09;99157.78;4139582;28;20638;-84
2022/04/28 11:15:19;;;;;;;5.00;4.50;;;;;;;20.26;46.97;99164.19;4139083;28;20650;-85
2022/04/28 11:17:23;;;;;;;10.30;5.70;;;;;;;20.42;48.87;99156.53;4140403;28;20654;-84
2022/04/28 11:19:26;;;;;;;7.20;5.37;;;;;;;20.45;46.99;99164.22;4122613;28;21730;-85
2022/04/28 11:21:30;;;;;;;6.20;4.77;;;;;;;20.31;46.62;99158.47;4134333;28;20654;-85
2022/04/28 11:23:35;;;;;;;5.30;4.80;;;;;;;20.32;45.99;99153.84;4139676;28;20717;-84
2022/04/28 11:25:51;;;;;;;5.57;5.07;;;;;;;20.30;47.06;99155.00;4146582;28;20653;-85
2022/04/28 11:27:57;;;;;;;5.00;4.33;;;;;;;20.15;48.00;99144.94;4138058;28;20635;-85
2022/04/28 11:30:00;;;;;;;5.70;5.20;;;;;;;20.20;48.13;99143.53;4140788;28;20634;-84
2022/04/28 11:32:05;;;;;;;5.80;5.20;;;;;;;20.21;48.07;99155.00;4145722;28;20644;-85
2022/04/28 11:34:09;;;;;;;6.23;4.63;;;;;;;20.32;48.49;99148.56;4139285;28;20642;-85
2022/04/28 11:36:25;;;;;;;8.57;6.30;;;;;;;20.32;48.49;99164.47;4121834;28;20666;-85
2022/04/28 11:38:31;;;;;;;7.60;4.73;;;;;;;20.36;49.41;99157.09;4134906;28;20663;-85